Redding (RDD/KRDD)

Map

Destinations

Information

Location
Redding, CA
Local Time
16:36 / 4:36 pm
GMT Time
23:36 / 11:36 pm
Gates
3
No FAA reported delays
METAR KRDD 232253Z 35008G14KT 10SM CLR 26/M02 A2989 RMK AO2 SLP118 T02611017
TAF KRDD 231728Z 2318/2418 36013G20KT P6SM FEW250 FM240200 35010KT P6SM SKC